createdAt,value
2023-04-01T06:29:10.035Z,142511.84
2023-04-01T06:34:26.503Z,142511.84
2023-04-01T06:39:37.676Z,142518.06
2023-04-01T06:44:49.551Z,142527.94
2023-04-01T06:50:22.127Z,142539.06
2023-04-01T06:55:47.000Z,142532.88
2023-04-01T07:01:16.319Z,142516.78
2023-04-01T07:06:27.804Z,142561.31
2023-04-01T07:11:35.541Z,142552.66
2023-04-01T07:17:17.895Z,142537.84
2023-04-01T07:22:29.094Z,142578.66
2023-04-01T07:27:52.341Z,142567.50
2023-04-01T07:32:59.826Z,142458.63
2023-04-01T07:38:18.622Z,142363.38
2023-04-01T07:43:29.450Z,142325.06
2023-04-01T07:48:51.776Z,142252.09
2023-04-01T07:54:04.170Z,142228.59
2023-04-01T07:59:12.361Z,142121.03
2023-04-01T08:04:47.390Z,142139.59
2023-04-01T08:09:56.978Z,142148.22
2023-04-01T08:15:24.051Z,142113.66
2023-04-01T08:20:41.486Z,142103.78
2023-04-01T08:25:50.719Z,142101.31
2023-04-01T08:31:03.827Z,142098.84
2023-04-01T08:36:10.540Z,142090.16
2023-04-01T08:41:30.677Z,142097.59
2023-04-01T08:47:07.592Z,142075.34
2023-04-01T08:52:22.798Z,142112.41
2023-04-01T08:57:38.891Z,142112.41
2023-04-01T09:03:21.455Z,142091.38
2023-04-01T09:08:33.108Z,142134.66
2023-04-01T09:13:59.295Z,142132.19
2023-04-01T09:19:24.746Z,142182.88
2023-04-01T09:24:43.253Z,142144.53
2023-04-01T09:29:57.267Z,142086.44
2023-04-01T09:35:09.154Z,142072.88
2023-04-01T09:40:21.030Z,141974.03
2023-04-01T09:45:34.288Z,142142.06
2023-04-01T09:50:44.824Z,142095.09
2023-04-01T09:56:08.370Z,142043.25
2023-04-01T10:01:32.446Z,142032.09
2023-04-01T10:07:05.932Z,142035.78
2023-04-01T10:12:31.460Z,142009.84
2023-04-01T10:17:52.406Z,141987.66
2023-04-01T10:23:04.361Z,142002.44
2023-04-01T10:28:23.184Z,141961.72
2023-04-01T10:34:07.931Z,141959.25
2023-04-01T10:39:35.845Z,141958.00
2023-04-01T10:45:13.349Z,141934.59
2023-04-01T10:50:34.193Z,141887.66
2023-04-01T10:55:58.734Z,141855.56
2023-04-01T11:02:10.208Z,141871.63
2023-04-01T11:08:05.225Z,141856.78
2023-04-01T11:13:23.582Z,141853.09
2023-04-01T11:18:54.628Z,141862.94
2023-04-01T11:24:18.680Z,141858.03
2023-04-01T11:29:56.665Z,141895.03
2023-04-01T11:35:31.585Z,141849.38
2023-04-01T11:40:39.594Z,141854.31
2023-04-01T11:46:06.151Z,141843.22
2023-04-01T11:51:27.710Z,141822.22
2023-04-01T11:56:41.714Z,141824.69
2023-04-01T12:01:52.231Z,141859.25
2023-04-01T12:07:01.313Z,141849.38
2023-04-01T12:12:13.980Z,141802.47
2023-04-01T12:17:24.083Z,141774.09
2023-04-01T12:22:38.261Z,141776.56
2023-04-01T12:27:50.701Z,141749.41
2023-04-01T12:33:02.591Z,141748.16
2023-04-01T12:38:16.238Z,141753.09
2023-04-01T12:43:33.177Z,141746.94
2023-04-01T12:48:49.667Z,141696.34
2023-04-01T12:54:08.125Z,141727.19
2023-04-01T12:59:26.569Z,141692.63
2023-04-01T13:04:39.982Z,141695.09
2023-04-01T13:09:51.900Z,141700.03
2023-04-01T13:15:10.810Z,141695.09
2023-04-01T13:20:22.304Z,141688.94
2023-04-01T13:25:29.320Z,141677.84
2023-04-01T13:30:36.473Z,141644.50
2023-04-01T13:35:47.047Z,141659.34
2023-04-01T13:41:02.962Z,141613.69
2023-04-01T13:46:18.472Z,141632.19
2023-04-01T13:51:33.009Z,141598.91
2023-04-01T13:56:40.476Z,141589.00
2023-04-01T14:01:46.502Z,141606.28
2023-04-01T14:07:02.702Z,141614.91
2023-04-01T14:12:13.263Z,141606.28
2023-04-01T14:17:23.857Z,141619.88
2023-04-01T14:22:32.265Z,141616.13
2023-04-01T14:27:47.015Z,141622.34
2023-04-01T14:32:58.561Z,141585.31
2023-04-01T14:38:14.163Z,141545.88
2023-04-01T14:43:30.924Z,141556.94
2023-04-01T14:48:36.148Z,141556.94
2023-04-01T14:53:46.908Z,141490.44
2023-04-01T14:58:52.944Z,141522.44
2023-04-01T15:04:02.172Z,141489.22
2023-04-01T15:09:13.446Z,141511.34
2023-04-01T15:14:39.201Z,141483.06
2023-04-01T15:19:50.786Z,141489.22
2023-04-01T15:24:58.916Z,141508.91
2023-04-01T15:30:17.158Z,141485.53
2023-04-01T15:35:29.338Z,141518.75
2023-04-01T15:40:39.179Z,141494.13
2023-04-01T15:45:47.913Z,141523.66
2023-04-01T15:50:57.123Z,141485.53
2023-04-01T15:56:12.714Z,141443.59
2023-04-01T16:01:28.251Z,141453.47
2023-04-01T16:06:45.487Z,141439.88
2023-04-01T16:11:55.702Z,141449.78
2023-04-01T16:17:07.280Z,141441.13
2023-04-01T16:22:14.829Z,141353.63
2023-04-01T16:27:22.489Z,141375.81
2023-04-01T16:32:36.713Z,141352.41
2023-04-01T16:37:44.539Z,141320.38
2023-04-01T16:42:52.940Z,141308.03
2023-04-01T16:47:58.532Z,141305.56
2023-04-01T16:53:04.698Z,141273.53
2023-04-01T16:58:13.293Z,141246.44
2023-04-01T17:03:21.131Z,141221.81
2023-04-01T17:08:32.079Z,141231.69
2023-04-01T17:13:49.022Z,141223.03
2023-04-01T17:18:58.430Z,141220.59
2023-04-01T17:24:05.166Z,141178.75
2023-04-01T17:29:18.724Z,141165.16
2023-04-01T17:34:41.491Z,141146.72
2023-04-01T17:39:51.382Z,141104.91
2023-04-01T17:45:05.703Z,141086.47
2023-04-01T17:50:22.727Z,141059.38
2023-04-01T17:55:42.262Z,141063.06
2023-04-01T18:00:59.793Z,141074.13
2023-04-01T18:06:09.363Z,141043.38
2023-04-01T18:11:19.771Z,141029.84
2023-04-01T18:16:30.999Z,141019.97
2023-04-01T18:21:38.873Z,141013.84
2023-04-01T18:26:46.330Z,140978.16
2023-04-01T18:31:54.520Z,140957.25
2023-04-01T18:37:01.293Z,140969.53
2023-04-01T18:42:09.422Z,140926.50
2023-04-01T18:47:25.178Z,140901.88
2023-04-01T18:52:31.033Z,140900.66
2023-04-01T18:57:43.601Z,140874.84
2023-04-01T19:02:52.337Z,140868.69
2023-04-01T19:07:57.072Z,140874.84
2023-04-01T19:13:09.714Z,140831.78
2023-04-01T19:18:28.418Z,140820.72
2023-04-01T19:23:53.154Z,140796.13
2023-04-01T19:29:01.440Z,140782.63
2023-04-01T19:34:15.503Z,140769.13
2023-04-01T19:39:27.671Z,140769.13
2023-04-01T19:44:39.533Z,140749.44
2023-04-01T19:49:50.809Z,140745.75
2023-04-01T19:55:00.135Z,140735.94
2023-04-01T20:00:08.338Z,140712.59
2023-04-01T20:05:34.479Z,140715.03
2023-04-01T20:10:45.151Z,140708.91
2023-04-01T20:15:49.683Z,140684.31
2023-04-01T20:20:57.389Z,140689.22
2023-04-01T20:26:05.000Z,140688.00
2023-04-01T20:31:24.562Z,140690.47
2023-04-01T20:36:33.050Z,140676.97
2023-04-01T20:41:42.384Z,140651.16
2023-04-01T20:46:51.624Z,140638.88
2023-04-01T20:51:57.016Z,140630.25
2023-04-01T20:57:07.644Z,140638.88
2023-04-01T21:02:19.098Z,140641.34
2023-04-01T21:07:24.112Z,140619.22
2023-04-01T21:12:37.514Z,140636.38
2023-04-01T21:17:48.783Z,140629.03
2023-04-01T21:23:05.672Z,140621.66
2023-04-01T21:28:23.405Z,140614.31
